Time;durP1;ratioP1;P1;durP2;ratioP2;P2;SDS_P1;SDS_P2;PMS_P1;PMS_P2;Temp;Humidity;BMP_temperature;BMP_pressure;BME280_temperature;BME280_humidity;BME280_pressure;Samples;Min_cycle;Max_cycle;Signal;HPM_P1;HPM_P2
2023/05/20 00:00:47;;;;;;;7.65;4.05;;;;;;;15.71;49.66;102275.94;5026285;28;20022;-87
2023/05/20 00:03:12;;;;;;;9.13;3.53;;;;;;;15.69;49.63;102273.34;5024223;28;20038;-87
2023/05/20 00:05:37;;;;;;;7.28;3.35;;;;;;;15.67;50.44;102277.00;5010078;28;20025;-88
2023/05/20 00:08:06;;;;;;;7.53;3.35;;;;;;;15.57;50.50;102264.00;5030749;28;20041;-88
2023/05/20 00:10:31;;;;;;;9.75;3.60;;;;;;;15.57;50.77;102268.44;5009604;28;20029;-88
2023/05/20 00:12:56;;;;;;;5.82;3.03;;;;;;;15.52;50.90;102267.72;5024279;28;20025;-88
2023/05/20 00:15:21;;;;;;;7.75;3.28;;;;;;;15.54;50.53;102273.91;5011891;28;20858;-87
2023/05/20 00:17:47;;;;;;;7.15;3.13;;;;;;;15.45;50.77;102256.44;5013122;28;20132;-87
2023/05/20 00:20:13;;;;;;;6.20;2.95;;;;;;;15.45;50.88;102261.78;5025063;28;20385;-88
2023/05/20 00:22:38;;;;;;;6.47;3.40;;;;;;;15.44;51.32;102269.84;5025398;28;20033;-88
2023/05/20 00:25:04;;;;;;;7.38;3.30;;;;;;;15.43;51.50;102279.59;5010630;28;20024;-88
2023/05/20 00:27:29;;;;;;;9.10;3.45;;;;;;;15.37;51.50;102271.84;5029107;28;20108;-87
2023/05/20 00:29:54;;;;;;;7.55;3.22;;;;;;;15.33;51.10;102267.56;5012009;28;20036;-88
2023/05/20 00:32:19;;;;;;;5.80;3.30;;;;;;;15.27;51.79;102263.34;5029834;28;20070;-88
2023/05/20 00:34:57;;;;;;;6.45;3.40;;;;;;;15.27;51.62;102265.13;5035218;28;20562;-88
2023/05/20 00:37:23;;;;;;;6.55;3.10;;;;;;;15.19;51.98;102261.88;5028098;28;20032;-88
2023/05/20 00:39:48;;;;;;;7.72;3.50;;;;;;;15.17;52.18;102259.28;5013309;28;20020;-87
2023/05/20 00:42:24;;;;;;;6.85;3.70;;;;;;;15.15;52.51;102266.44;5040690;28;20033;-88
2023/05/20 00:44:50;;;;;;;5.18;3.75;;;;;;;15.01;52.58;102258.97;5027840;28;20060;-88
2023/05/20 00:47:16;;;;;;;7.05;3.30;;;;;;;14.98;52.57;102259.06;5029858;28;20476;-87
2023/05/20 00:49:43;;;;;;;8.00;3.58;;;;;;;14.97;52.80;102262.66;5012300;28;20439;-88
2023/05/20 00:52:10;;;;;;;10.65;4.22;;;;;;;14.92;53.57;102253.09;5029371;28;20029;-87
2023/05/20 00:54:35;;;;;;;6.65;3.63;;;;;;;14.96;52.70;102263.56;5031974;28;20383;-88
2023/05/20 00:57:02;;;;;;;5.93;3.78;;;;;;;14.89;53.02;102248.75;5015035;28;20027;-88
2023/05/20 00:59:27;;;;;;;7.55;3.35;;;;;;;14.93;53.10;102261.03;5024602;28;20483;-88
2023/05/20 01:01:56;;;;;;;5.45;3.35;;;;;;;14.82;53.27;102241.03;5014637;28;20029;-88
2023/05/20 01:04:21;;;;;;;7.40;3.53;;;;;;;14.81;53.18;102253.47;5023209;28;20037;-88
2023/05/20 01:06:46;;;;;;;6.40;3.72;;;;;;;14.73;54.32;102252.84;5032644;28;20039;-87
2023/05/20 01:09:12;;;;;;;6.25;3.80;;;;;;;14.73;54.23;102256.38;5018424;28;20121;-88
2023/05/20 01:11:43;;;;;;;8.48;3.58;;;;;;;14.74;53.70;102255.50;5011092;28;20044;-87
2023/05/20 01:14:11;;;;;;;10.50;3.63;;;;;;;14.71;54.04;102252.94;5027823;28;20052;-88
2023/05/20 01:16:38;;;;;;;8.68;3.55;;;;;;;14.65;53.84;102250.50;5025208;28;20036;-87
2023/05/20 01:19:14;;;;;;;7.85;3.60;;;;;;;14.62;54.12;102249.72;5029631;28;20440;-87
2023/05/20 01:21:42;;;;;;;8.93;3.97;;;;;;;14.57;54.16;102252.53;5025209;28;20033;-87
2023/05/20 01:24:07;;;;;;;5.50;3.88;;;;;;;14.52;54.81;102249.16;5013694;28;20092;-87
2023/05/20 01:26:37;;;;;;;7.30;3.58;;;;;;;14.49;54.48;102244.81;5030082;28;20025;-87
2023/05/20 01:29:03;;;;;;;9.30;3.80;;;;;;;14.38;54.80;102225.66;5008677;28;20033;-87
2023/05/20 01:31:32;;;;;;;6.28;4.18;;;;;;;14.52;55.23;102251.81;5005261;28;20013;-87
2023/05/20 01:33:59;;;;;;;5.50;3.90;;;;;;;14.44;55.27;102257.38;5028203;28;20119;-87
2023/05/20 01:36:26;;;;;;;6.65;3.47;;;;;;;14.40;55.32;102239.75;5011542;28;20479;-88
2023/05/20 01:38:52;;;;;;;6.38;4.07;;;;;;;14.43;55.11;102249.44;5026527;28;20472;-88
2023/05/20 01:41:19;;;;;;;6.75;3.88;;;;;;;14.35;55.13;102235.50;5029314;28;20472;-88
2023/05/20 01:43:45;;;;;;;5.15;3.42;;;;;;;14.38;55.06;102235.44;5029097;28;20033;-88
2023/05/20 01:46:10;;;;;;;8.05;4.00;;;;;;;14.32;55.60;102222.34;5029627;28;20037;-88
2023/05/20 01:48:37;;;;;;;7.07;3.65;;;;;;;14.37;55.32;102237.22;5029054;28;20032;-88
2023/05/20 01:51:02;;;;;;;6.03;3.88;;;;;;;14.31;56.07;102240.06;5027173;28;20036;-87
2023/05/20 01:53:28;;;;;;;8.80;4.20;;;;;;;14.28;55.89;102243.72;5009416;28;20022;-87
2023/05/20 01:55:53;;;;;;;7.20;4.35;;;;;;;14.25;55.77;102238.47;5010752;28;20491;-88
2023/05/20 01:58:18;;;;;;;6.35;4.25;;;;;;;14.21;56.14;102228.00;5011060;28;20115;-88
2023/05/20 02:00:43;;;;;;;5.82;3.90;;;;;;;14.20;56.32;102237.78;5027565;28;20013;-87
2023/05/20 02:03:10;;;;;;;6.22;4.05;;;;;;;14.12;56.52;102222.97;5028207;28;20041;-87
2023/05/20 02:05:35;;;;;;;9.77;4.13;;;;;;;14.11;56.01;102222.13;5010655;28;20421;-87
2023/05/20 02:08:00;;;;;;;10.07;4.10;;;;;;;14.13;56.32;102233.59;5026530;28;20493;-87
2023/05/20 02:10:26;;;;;;;5.90;3.80;;;;;;;14.07;56.80;102230.25;5012152;28;20025;-87
2023/05/20 02:12:51;;;;;;;4.60;3.60;;;;;;;14.02;56.48;102220.63;5009919;28;20036;-87
2023/05/20 02:15:16;;;;;;;6.63;3.85;;;;;;;13.96;56.75;102219.97;5024321;28;20029;-88
2023/05/20 02:17:42;;;;;;;9.32;4.35;;;;;;;13.98;57.16;102228.75;5024299;28;20324;-87
2023/05/20 02:20:09;;;;;;;8.00;4.05;;;;;;;13.95;56.92;102226.19;5013826;28;20500;-87
2023/05/20 02:22:34;;;;;;;9.63;4.60;;;;;;;13.87;57.25;102214.94;5024728;28;20100;-87
2023/05/20 02:25:00;;;;;;;6.95;4.10;;;;;;;13.91;57.26;102222.75;5010044;28;20113;-88
2023/05/20 02:27:25;;;;;;;7.05;4.57;;;;;;;13.84;57.48;102223.00;5025079;28;20025;-87
2023/05/20 02:29:50;;;;;;;9.52;4.95;;;;;;;13.79;57.67;102220.47;5019149;28;20548;-87
2023/05/20 02:32:16;;;;;;;8.98;4.50;;;;;;;13.77;57.46;102214.34;5029140;28;20076;-87
2023/05/20 02:34:41;;;;;;;7.82;4.30;;;;;;;13.75;57.97;102219.69;5030376;28;20028;-87
2023/05/20 02:37:06;;;;;;;9.57;4.40;;;;;;;13.71;57.82;102215.44;5031429;28;20412;-88
2023/05/20 02:39:32;;;;;;;9.95;4.22;;;;;;;13.70;58.28;102212.78;5029657;28;20413;-87
2023/05/20 02:41:57;;;;;;;7.85;3.92;;;;;;;13.69;58.33;102216.38;5013819;28;20071;-87
2023/05/20 02:44:22;;;;;;;7.97;4.40;;;;;;;13.66;58.07;102220.03;5015915;28;20021;-88
2023/05/20 02:46:48;;;;;;;11.57;4.35;;;;;;;13.65;58.18;102217.38;5032088;28;20026;-88
2023/05/20 02:49:13;;;;;;;7.32;4.20;;;;;;;13.60;58.29;102217.53;5032754;28;20126;-88
2023/05/20 02:51:39;;;;;;;7.30;4.40;;;;;;;13.64;58.81;102216.53;5030910;28;20037;-87
2023/05/20 02:54:05;;;;;;;7.45;4.28;;;;;;;13.63;58.77;102219.25;5034763;28;20021;-88
2023/05/20 02:56:31;;;;;;;10.00;4.95;;;;;;;13.64;59.09;102211.22;5030854;28;20029;-88
2023/05/20 02:58:56;;;;;;;7.93;3.80;;;;;;;13.64;58.82;102219.19;5030303;28;20048;-87
2023/05/20 03:01:22;;;;;;;6.90;4.10;;;;;;;13.58;58.48;102213.19;5011931;28;20120;-88
2023/05/20 03:03:47;;;;;;;4.90;4.40;;;;;;;13.59;59.32;102218.44;5030772;28;20056;-87
2023/05/20 03:06:12;;;;;;;7.63;4.20;;;;;;;13.59;59.67;102218.44;5035207;28;20029;-87
2023/05/20 03:08:38;;;;;;;7.00;4.15;;;;;;;13.57;59.50;102211.44;5028309;28;20029;-87
2023/05/20 03:11:04;;;;;;;5.03;4.18;;;;;;;13.60;59.62;102211.34;5012348;28;20033;-88
2023/05/20 03:13:29;;;;;;;8.00;4.38;;;;;;;13.55;59.25;102206.19;5035741;28;20096;-88
2023/05/20 03:15:55;;;;;;;6.07;3.97;;;;;;;13.53;59.31;102208.03;5030073;28;20040;-88
2023/05/20 03:18:20;;;;;;;11.60;4.78;;;;;;;13.45;59.27;102194.97;5030367;28;20117;-87
2023/05/20 03:20:45;;;;;;;10.23;4.95;;;;;;;13.48;59.72;102213.47;5014698;28;20044;-88
2023/05/20 03:23:11;;;;;;;10.05;4.68;;;;;;;13.44;59.66;102205.66;5028290;28;20064;-88
2023/05/20 03:25:37;;;;;;;7.97;4.50;;;;;;;13.36;60.39;102208.53;5031124;28;20341;-88
2023/05/20 03:28:02;;;;;;;6.80;4.38;;;;;;;13.33;59.88;102207.72;5013516;28;20023;-88
2023/05/20 03:30:28;;;;;;;5.47;4.32;;;;;;;13.35;59.93;102213.88;5008802;28;20662;-87
2023/05/20 03:32:56;;;;;;;10.48;4.40;;;;;;;13.32;60.13;102214.84;5012552;28;20068;-88
2023/05/20 03:35:21;;;;;;;8.60;4.88;;;;;;;13.31;60.35;102210.44;5030395;28;20113;-88
2023/05/20 03:37:47;;;;;;;8.77;4.20;;;;;;;13.26;59.89;102205.28;5030609;28;20037;-88
2023/05/20 03:40:12;;;;;;;5.93;4.63;;;;;;;13.34;60.24;102223.66;5029106;28;20076;-87
2023/05/20 03:42:38;;;;;;;6.80;4.47;;;;;;;13.30;60.56;102213.16;5031045;28;20194;-88
2023/05/20 03:45:05;;;;;;;8.38;4.38;;;;;;;13.27;60.58;102206.13;5031065;28;20455;-88
2023/05/20 03:47:30;;;;;;;11.48;5.05;;;;;;;13.18;60.85;102201.06;5030600;28;20025;-88
2023/05/20 03:49:56;;;;;;;5.88;4.35;;;;;;;13.17;60.89;102205.50;5008983;28;20054;-88
2023/05/20 03:52:21;;;;;;;8.40;4.78;;;;;;;13.21;61.21;102208.94;5009882;28;20361;-88
2023/05/20 03:54:46;;;;;;;7.07;4.63;;;;;;;13.20;61.15;102210.75;5009048;28;20473;-88
2023/05/20 03:57:12;;;;;;;8.02;4.57;;;;;;;13.15;61.81;102212.66;5010556;28;20029;-87
2023/05/20 03:59:37;;;;;;;9.90;4.60;;;;;;;13.18;61.31;102209.88;5010505;28;20032;-88
2023/05/20 04:02:05;;;;;;;6.22;4.63;;;;;;;13.12;61.22;102204.78;5008872;28;20056;-87
2023/05/20 04:04:31;;;;;;;8.60;4.85;;;;;;;13.02;61.26;102188.25;5009669;28;20042;-88
2023/05/20 04:06:59;;;;;;;9.95;4.50;;;;;;;13.09;61.36;102198.66;5006332;28;20041;-88
2023/05/20 04:09:25;;;;;;;9.25;4.70;;;;;;;13.09;61.37;102199.53;5009780;28;20478;-88
2023/05/20 04:11:50;;;;;;;8.20;4.72;;;;;;;13.01;61.50;102186.50;5008216;28;20033;-88
2023/05/20 04:14:16;;;;;;;7.00;4.90;;;;;;;13.09;62.10;102207.50;5010572;28;20037;-87
2023/05/20 04:16:42;;;;;;;9.63;4.82;;;;;;;13.05;61.45;102204.97;5014027;28;21471;-87
2023/05/20 04:19:07;;;;;;;7.80;4.68;;;;;;;13.02;61.87;102203.31;5007079;28;20030;-87
2023/05/20 04:21:33;;;;;;;10.15;4.80;;;;;;;13.12;61.97;102217.19;5004708;28;20097;-88
2023/05/20 04:23:58;;;;;;;9.38;4.70;;;;;;;13.05;62.75;102211.16;5008929;28;20033;-88
2023/05/20 04:26:23;;;;;;;7.43;4.57;;;;;;;13.09;62.37;102212.81;5011410;28;20131;-88
2023/05/20 04:28:49;;;;;;;11.65;4.65;;;;;;;13.15;62.05;102214.41;5008135;28;20034;-88
2023/05/20 04:31:14;;;;;;;8.30;4.82;;;;;;;13.16;62.35;102211.75;5006578;28;20029;-87
2023/05/20 04:33:40;;;;;;;15.45;5.32;;;;;;;13.15;61.92;102199.38;5005538;28;20026;-88
2023/05/20 04:36:07;;;;;;;7.88;5.00;;;;;;;13.25;62.36;102224.78;5012265;28;20032;-88
2023/05/20 04:38:32;;;;;;;11.65;4.63;;;;;;;13.19;62.32;102210.75;5004892;28;20037;-88
2023/05/20 04:40:59;;;;;;;11.30;4.85;;;;;;;13.29;62.48;102214.94;5005646;28;20029;-87
2023/05/20 04:43:28;;;;;;;10.43;4.90;;;;;;;13.28;62.51;102219.34;5010790;28;20108;-87
2023/05/20 04:45:54;;;;;;;7.47;4.43;;;;;;;13.26;62.75;102209.72;5006615;28;20485;-88
2023/05/20 04:48:21;;;;;;;8.23;4.97;;;;;;;13.35;62.96;102217.41;5007402;28;20029;-88
2023/05/20 04:50:47;;;;;;;9.60;5.35;;;;;;;13.27;62.67;102196.38;5025191;28;20481;-88
2023/05/20 04:53:12;;;;;;;5.97;5.03;;;;;;;13.28;62.65;102203.41;5028398;28;20040;-88
2023/05/20 04:55:37;;;;;;;7.28;4.90;;;;;;;13.42;62.47;102212.78;5009326;28;20029;-88
2023/05/20 04:58:03;;;;;;;8.45;5.22;;;;;;;13.42;62.68;102215.44;5013213;28;20388;-87
2023/05/20 05:00:28;;;;;;;6.50;4.47;;;;;;;13.46;62.59;102225.06;5035293;28;20029;-87
2023/05/20 05:02:53;;;;;;;8.32;4.70;;;;;;;13.52;62.68;102223.09;5033268;28;20040;-88
2023/05/20 05:05:19;;;;;;;8.95;4.72;;;;;;;13.57;62.77;102217.66;5009011;28;20024;-88
2023/05/20 05:07:44;;;;;;;9.65;4.85;;;;;;;13.60;62.84;102214.00;5012928;28;20111;-88
2023/05/20 05:10:10;;;;;;;8.45;4.90;;;;;;;13.52;62.65;102196.53;5021626;28;20472;-88
2023/05/20 05:12:35;;;;;;;8.65;5.10;;;;;;;13.60;62.87;102196.28;5024346;28;20116;-88
2023/05/20 05:15:00;;;;;;;7.85;4.53;;;;;;;13.69;62.47;102193.31;5030678;28;20032;-88
2023/05/20 05:17:27;;;;;;;8.70;5.07;;;;;;;13.74;62.52;102198.50;5017249;28;20027;-87
2023/05/20 05:19:52;;;;;;;6.40;5.00;;;;;;;13.78;62.47;102198.34;5027714;28;20036;-88
2023/05/20 05:22:18;;;;;;;10.27;4.90;;;;;;;13.84;62.00;102199.94;5027502;28;20033;-88
2023/05/20 05:24:43;;;;;;;7.32;4.68;;;;;;;13.94;62.28;102206.72;5011853;28;20484;-87
2023/05/20 05:27:08;;;;;;;6.88;5.43;;;;;;;13.93;62.06;102196.97;5030216;28;20025;-88
2023/05/20 05:29:34;;;;;;;8.85;5.15;;;;;;;13.98;62.22;102191.50;5024674;28;20527;-87
2023/05/20 05:32:00;;;;;;;7.68;4.97;;;;;;;14.07;62.24;102201.00;5026038;28;20030;-88
2023/05/20 05:34:25;;;;;;;10.15;4.75;;;;;;;14.07;61.89;102196.53;5024518;28;20460;-88
2023/05/20 05:36:50;;;;;;;8.95;5.50;;;;;;;14.08;62.12;102187.63;5033844;28;20063;-87
2023/05/20 05:39:15;;;;;;;7.15;5.35;;;;;;;14.20;61.81;102195.22;5007542;28;20114;-88
2023/05/20 05:41:41;;;;;;;9.48;5.40;;;;;;;14.29;61.39;102205.53;5027329;28;20437;-88
2023/05/20 05:44:06;;;;;;;8.40;5.45;;;;;;;14.34;61.49;102202.72;5033306;28;20033;-88
2023/05/20 05:46:32;;;;;;;7.00;4.70;;;;;;;14.35;61.58;102193.81;5011718;28;20022;-88
2023/05/20 05:48:57;;;;;;;12.60;5.88;;;;;;;14.37;61.27;102183.16;5028202;28;20397;-88
2023/05/20 05:51:24;;;;;;;7.85;5.40;;;;;;;14.49;61.47;102196.03;5025988;28;20059;-87
2023/05/20 05:53:49;;;;;;;9.18;5.32;;;;;;;14.49;61.35;102186.25;5016850;28;20175;-87
2023/05/20 05:56:14;;;;;;;9.05;5.40;;;;;;;14.44;61.18;102168.69;5028057;28;20112;-87
2023/05/20 05:58:40;;;;;;;8.95;4.75;;;;;;;14.60;61.01;102193.88;5028499;28;20108;-88
2023/05/20 06:01:05;;;;;;;7.82;5.28;;;;;;;14.64;60.55;102190.19;5026527;28;20454;-87
2023/05/20 06:03:31;;;;;;;5.93;4.63;;;;;;;14.70;60.70;102189.09;5026049;28;20040;-88
2023/05/20 06:05:57;;;;;;;8.40;5.55;;;;;;;14.81;60.66;102202.88;5028999;28;20030;-88
2023/05/20 06:08:22;;;;;;;9.48;5.25;;;;;;;14.91;60.85;102200.75;5011177;28;20036;-88
2023/05/20 06:10:48;;;;;;;10.30;5.45;;;;;;;14.91;59.78;102190.09;5013482;28;20491;-87
2023/05/20 06:13:14;;;;;;;9.90;4.88;;;;;;;14.97;59.70;102192.56;5016872;28;20025;-87
2023/05/20 06:15:40;;;;;;;8.43;5.43;;;;;;;15.09;59.19;102194.75;5015370;28;20028;-87
2023/05/20 06:18:05;;;;;;;9.30;4.90;;;;;;;15.18;59.39;102190.88;5030605;28;20044;-87
2023/05/20 06:20:30;;;;;;;6.95;5.43;;;;;;;15.33;59.33;102198.28;5028703;28;20451;-87
2023/05/20 06:22:56;;;;;;;7.70;4.80;;;;;;;15.46;58.34;102190.69;5019556;28;20369;-87
2023/05/20 06:25:21;;;;;;;7.10;4.47;;;;;;;15.55;57.97;102185.00;5028884;28;20483;-88
2023/05/20 06:27:47;;;;;;;5.15;4.35;;;;;;;15.68;56.98;102183.63;5029017;28;20037;-88
2023/05/20 06:30:12;;;;;;;8.07;4.70;;;;;;;15.85;57.13;102177.56;5006612;28;20029;-87
2023/05/20 06:32:38;;;;;;;9.23;4.47;;;;;;;16.02;56.43;102179.56;5030830;28;20021;-88
2023/05/20 06:35:04;;;;;;;6.88;4.43;;;;;;;16.11;56.94;102168.50;5011113;28;20033;-88
2023/05/20 06:37:29;;;;;;;5.82;4.72;;;;;;;16.29;56.22;102161.53;5012395;28;20029;-88
2023/05/20 06:39:54;;;;;;;8.27;4.60;;;;;;;16.45;56.22;102156.38;5027977;28;20091;-88
2023/05/20 06:42:20;;;;;;;8.13;4.30;;;;;;;16.61;55.21;102154.78;5018034;28;20392;-88
2023/05/20 06:44:45;;;;;;;6.22;4.20;;;;;;;16.81;53.70;102167.28;5029133;28;20041;-88
2023/05/20 06:47:13;;;;;;;8.23;4.25;;;;;;;16.95;53.93;102164.84;5017687;28;20022;-89
2023/05/20 06:49:39;;;;;;;6.05;4.25;;;;;;;17.11;53.58;102158.78;5016891;28;20046;-88
2023/05/20 06:52:04;;;;;;;7.30;4.63;;;;;;;17.26;52.72;102161.63;5012639;28;20033;-88
2023/05/20 06:54:32;;;;;;;5.80;4.00;;;;;;;17.35;51.74;102144.28;5026403;28;20472;-88
2023/05/20 06:56:58;;;;;;;5.20;4.25;;;;;;;17.51;51.26;102149.75;5008076;28;20033;-88
2023/05/20 06:59:24;;;;;;;11.93;3.85;;;;;;;17.62;51.96;102146.53;5033726;28;20245;-88
2023/05/20 07:01:49;;;;;;;5.70;3.78;;;;;;;17.74;52.51;102149.53;5027579;28;20029;-88
2023/05/20 07:04:14;;;;;;;6.63;3.95;;;;;;;17.80;50.14;102134.97;5032487;28;20082;-88
2023/05/20 07:06:40;;;;;;;6.25;4.25;;;;;;;18.04;50.17;102143.56;5029107;28;20465;-88
2023/05/20 07:09:05;;;;;;;5.78;3.95;;;;;;;18.22;49.20;102148.00;5028862;28;20040;-88
2023/05/20 07:11:30;;;;;;;5.80;3.45;;;;;;;18.35;49.17;102142.88;5023507;28;20017;-89
2023/05/20 07:13:56;;;;;;;4.22;3.40;;;;;;;18.51;50.25;102148.28;5029265;28;20029;-88
2023/05/20 07:16:21;;;;;;;5.60;3.97;;;;;;;18.64;49.04;102144.00;5012742;28;20247;-89
2023/05/20 07:18:46;;;;;;;5.70;3.80;;;;;;;18.66;49.78;102138.59;5011780;28;20067;-88
2023/05/20 07:21:12;;;;;;;4.15;3.60;;;;;;;18.89;47.55;102150.78;5008770;28;20022;-88
2023/05/20 07:23:37;;;;;;;6.15;3.38;;;;;;;19.01;47.03;102142.06;5026017;28;20061;-88
2023/05/20 07:26:02;;;;;;;6.13;3.30;;;;;;;19.16;47.22;102135.84;5013513;28;20033;-88
2023/05/20 07:28:28;;;;;;;8.60;3.60;;;;;;;19.33;47.81;102138.47;5027021;28;20387;-89
2023/05/20 07:30:53;;;;;;;4.60;3.22;;;;;;;19.72;46.31;102138.97;5028814;28;20030;-88
2023/05/20 07:33:18;;;;;;;3.50;3.20;;;;;;;20.26;45.14;102134.00;5029036;28;20020;-88
2023/05/20 07:35:44;;;;;;;8.32;3.63;;;;;;;20.67;43.55;102128.81;5016001;28;20112;-89
2023/05/20 07:38:11;;;;;;;6.55;3.50;;;;;;;21.13;41.68;102125.91;5013470;28;20029;-88
2023/05/20 07:40:37;;;;;;;6.72;3.70;;;;;;;21.37;41.31;102129.72;5029626;28;20116;-88
2023/05/20 07:43:03;;;;;;;5.85;3.22;;;;;;;21.75;41.37;102125.47;5026696;28;20638;-88
2023/05/20 07:45:28;;;;;;;5.10;3.35;;;;;;;22.18;41.07;102123.44;5026974;28;20041;-89
2023/05/20 07:47:53;;;;;;;6.80;3.08;;;;;;;22.63;39.79;102129.31;5011564;28;20052;-88
2023/05/20 07:50:18;;;;;;;5.22;3.25;;;;;;;22.94;39.38;102129.84;5013169;28;20390;-89
2023/05/20 07:52:44;;;;;;;15.27;3.63;;;;;;;23.06;37.38;102121.72;5027690;28;20123;-89
2023/05/20 07:55:09;;;;;;;3.97;3.30;;;;;;;23.25;37.87;102121.25;5026172;28;20571;-89
2023/05/20 07:57:34;;;;;;;4.15;3.00;;;;;;;23.56;36.89;102125.25;5025244;28;20064;-88
2023/05/20 08:00:00;;;;;;;9.40;3.85;;;;;;;23.72;36.64;102113.31;5014568;28;20145;-89
2023/05/20 08:02:25;;;;;;;6.93;3.10;;;;;;;23.96;36.42;102106.03;5008952;28;20022;-88
2023/05/20 08:04:50;;;;;;;4.57;3.15;;;;;;;24.23;35.55;102099.50;5025239;28;20087;-89
2023/05/20 08:07:16;;;;;;;7.30;3.22;;;;;;;24.17;35.09;102107.09;5029715;28;20025;-88
2023/05/20 08:09:41;;;;;;;4.72;2.92;;;;;;;24.13;35.11;102110.16;5027871;28;20084;-89
2023/05/20 08:12:06;;;;;;;6.10;3.25;;;;;;;24.43;34.19;102090.69;5025935;28;20025;-89
2023/05/20 08:14:31;;;;;;;8.48;3.58;;;;;;;24.63;33.10;102097.25;5032868;28;20053;-89
2023/05/20 08:16:58;;;;;;;4.32;3.40;;;;;;;24.69;33.88;102092.19;5030990;28;20029;-88
2023/05/20 08:19:23;;;;;;;3.95;3.55;;;;;;;24.97;33.25;102094.53;5034772;28;20021;-89
2023/05/20 08:21:49;;;;;;;4.50;3.05;;;;;;;25.12;32.57;102086.03;5020098;28;20110;-89
2023/05/20 08:24:14;;;;;;;6.70;3.78;;;;;;;25.28;32.71;102092.91;5028055;28;20040;-89
2023/05/20 08:26:41;;;;;;;5.13;3.20;;;;;;;25.52;32.44;102106.25;5030589;28;20175;-89
2023/05/20 08:29:07;;;;;;;5.78;3.13;;;;;;;25.77;31.01;102092.38;5018714;28;20042;-89
2023/05/20 08:31:32;;;;;;;6.07;3.35;;;;;;;26.10;31.10;102095.91;5006176;28;20029;-89
2023/05/20 08:33:58;;;;;;;5.55;3.17;;;;;;;26.14;30.69;102092.81;5004055;28;20567;-88
2023/05/20 08:36:23;;;;;;;8.77;3.10;;;;;;;26.37;30.47;102087.25;5027423;28;20418;-89
2023/05/20 08:38:48;;;;;;;4.95;3.13;;;;;;;26.69;30.63;102093.44;5029640;28;20021;-89
2023/05/20 08:41:14;;;;;;;3.85;3.40;;;;;;;26.90;30.71;102087.06;5028412;28;20105;-89
2023/05/20 08:43:40;;;;;;;7.20;3.25;;;;;;;26.78;30.47;102089.03;5012608;28;20037;-89
2023/05/20 08:46:06;;;;;;;6.07;3.30;;;;;;;26.99;29.92;102075.38;5016907;28;20025;-89
2023/05/20 08:48:32;;;;;;;3.85;2.97;;;;;;;26.86;30.12;102081.09;5030118;28;20171;-89
2023/05/20 08:50:58;;;;;;;4.97;3.40;;;;;;;25.54;31.36;102071.78;5028876;28;20025;-89
2023/05/20 08:53:25;;;;;;;7.03;3.80;;;;;;;25.64;31.08;102080.84;5025737;28;20025;-89
2023/05/20 08:56:01;;;;;;;4.78;3.60;;;;;;;26.45;29.87;102069.34;5029223;28;20105;-88
2023/05/20 08:58:28;;;;;;;14.98;3.85;;;;;;;26.52;29.84;102075.06;5011545;28;20481;-88
2023/05/20 09:00:54;;;;;;;6.88;3.15;;;;;;;26.64;29.71;102078.56;5023801;28;20069;-89
2023/05/20 09:03:20;;;;;;;4.22;2.92;;;;;;;26.73;30.82;102072.31;5027792;28;20500;-88
2023/05/20 09:05:46;;;;;;;8.52;3.05;;;;;;;27.04;30.28;102074.97;5033292;28;20031;-89
2023/05/20 09:08:12;;;;;;;6.47;3.20;;;;;;;27.26;29.82;102071.19;5027680;28;20039;-88
2023/05/20 09:10:39;;;;;;;4.00;2.80;;;;;;;26.96;28.44;102073.81;5008379;28;20116;-88
2023/05/20 09:13:05;;;;;;;3.33;2.80;;;;;;;27.08;28.71;102054.69;5036664;28;20029;-88
2023/05/20 09:15:31;;;;;;;9.30;3.10;;;;;;;27.05;30.39;102068.56;5027194;28;20049;-89
2023/05/20 09:18:01;;;;;;;7.13;3.10;;;;;;;26.85;30.23;102075.78;5025200;28;20068;-88
2023/05/20 09:20:28;;;;;;;5.33;2.97;;;;;;;27.04;30.25;102067.69;5024454;28;20032;-88
2023/05/20 09:22:57;;;;;;;5.10;3.13;;;;;;;27.05;28.98;102058.56;5023087;28;20073;-89
2023/05/20 09:25:23;;;;;;;5.20;2.90;;;;;;;26.71;29.15;102058.88;5012279;28;20029;-88
2023/05/20 09:27:49;;;;;;;5.43;3.10;;;;;;;26.39;30.24;102064.44;5030419;28;20035;-89
2023/05/20 09:30:18;;;;;;;4.60;2.80;;;;;;;26.48;31.81;102065.47;5027507;28;20029;-88
2023/05/20 09:32:43;;;;;;;4.22;3.00;;;;;;;26.69;30.59;102055.44;5026214;28;20037;-89
2023/05/20 09:35:12;;;;;;;5.40;2.92;;;;;;;26.77;30.65;102056.63;5008937;28;20025;-88
2023/05/20 09:37:42;;;;;;;10.00;3.20;;;;;;;26.41;29.72;102059.72;5009874;28;20462;-89
2023/05/20 09:40:16;;;;;;;6.40;3.10;;;;;;;26.22;31.35;102048.78;5026325;28;20491;-89
2023/05/20 09:42:49;;;;;;;5.68;2.92;;;;;;;26.24;32.52;102065.75;5004392;28;20025;-88
2023/05/20 09:45:14;;;;;;;6.32;3.40;;;;;;;26.18;30.60;102058.16;5024226;28;20036;-88
2023/05/20 09:47:42;;;;;;;4.63;3.08;;;;;;;25.88;30.89;102059.84;5008673;28;20384;-89
2023/05/20 09:50:08;;;;;;;6.05;3.08;;;;;;;25.47;31.84;102059.75;5010591;28;20044;-89
2023/05/20 09:52:36;;;;;;;5.03;3.47;;;;;;;25.55;33.07;102062.66;5025803;28;20515;-89
2023/05/20 09:55:04;;;;;;;3.67;3.38;;;;;;;25.59;31.04;102046.00;5010953;28;20033;-88
2023/05/20 09:57:32;;;;;;;5.57;3.28;;;;;;;25.53;31.15;102059.22;5027013;28;20025;-88
2023/05/20 09:59:57;;;;;;;6.72;3.15;;;;;;;25.67;31.96;102046.22;5030889;28;20052;-88
2023/05/20 10:02:23;;;;;;;7.93;3.03;;;;;;;26.00;31.43;102047.06;5023487;28;20421;-89
2023/05/20 10:04:51;;;;;;;3.38;2.95;;;;;;;26.34;31.59;102050.41;5028876;28;20029;-89
2023/05/20 10:07:32;;;;;;;3.63;3.22;;;;;;;26.60;29.72;102044.56;5027140;28;20452;-88
2023/05/20 10:10:01;;;;;;;8.45;3.35;;;;;;;26.34;30.58;102041.41;5007543;28;20033;-89
2023/05/20 10:12:37;;;;;;;4.78;3.00;;;;;;;26.10;30.34;102037.13;5008376;28;20029;-88
2023/05/20 10:15:38;;;;;;;3.22;2.80;;;;;;;26.22;29.85;102034.38;5023178;28;20029;-88
2023/05/20 10:18:15;;;;;;;5.40;2.80;;;;;;;26.31;31.99;102038.97;5026611;28;20082;-88
2023/05/20 10:20:48;;;;;;;4.93;2.90;;;;;;;26.17;31.59;102032.91;5028988;28;20033;-88
2023/05/20 10:23:21;;;;;;;3.15;2.50;;;;;;;26.41;30.66;102038.03;5010988;28;20492;-88
2023/05/20 10:25:54;;;;;;;8.57;2.50;;;;;;;26.63;30.28;102018.03;5037943;28;20032;-89
2023/05/20 10:28:30;;;;;;;3.40;2.67;;;;;;;26.62;29.71;102026.28;5024593;28;20735;-89
2023/05/20 10:30:57;;;;;;;3.75;2.47;;;;;;;26.62;29.91;102021.72;5024607;28;20041;-89
2023/05/20 10:33:25;;;;;;;4.82;2.85;;;;;;;26.66;30.11;102017.72;5027077;28;20060;-89
2023/05/20 10:35:51;;;;;;;5.00;2.63;;;;;;;26.45;29.44;102023.25;5029246;28;20527;-89
2023/05/20 10:38:17;;;;;;;5.85;2.80;;;;;;;26.68;30.53;102009.47;5029164;28;20032;-89
2023/05/20 10:40:42;;;;;;;5.97;2.80;;;;;;;26.92;30.41;102012.66;5011320;28;20041;-89
2023/05/20 10:43:13;;;;;;;4.50;2.38;;;;;;;27.13;30.75;102019.88;5021555;28;20028;-89
2023/05/20 10:45:49;;;;;;;3.80;2.80;;;;;;;27.38;29.79;102011.19;5022683;28;20461;-88
2023/05/20 10:48:24;;;;;;;4.03;2.85;;;;;;;27.35;29.40;101994.31;5024985;28;20526;-89
2023/05/20 10:50:54;;;;;;;6.97;2.28;;;;;;;27.50;30.85;101987.44;5006307;28;20091;-89
2023/05/20 10:53:21;;;;;;;3.92;2.20;;;;;;;28.02;30.13;101993.38;5024711;28;20053;-88
2023/05/20 10:55:50;;;;;;;4.00;2.88;;;;;;;28.07;27.68;101995.66;5012496;28;20037;-88
2023/05/20 10:58:16;;;;;;;5.18;2.72;;;;;;;28.07;27.55;101987.50;5024881;28;20112;-89
2023/05/20 11:00:42;;;;;;;4.13;2.60;;;;;;;28.39;27.96;101996.13;5030742;28;20104;-88
2023/05/20 11:03:08;;;;;;;5.07;3.00;;;;;;;28.28;27.62;101979.97;5013105;28;20112;-89
2023/05/20 11:05:35;;;;;;;4.57;2.50;;;;;;;27.99;27.95;101984.69;5028661;28;20029;-89
2023/05/20 11:08:04;;;;;;;3.70;2.60;;;;;;;28.12;28.90;101988.78;5025670;28;20048;-89
2023/05/20 11:10:30;;;;;;;2.55;2.30;;;;;;;28.06;29.60;101972.19;5025177;28;20539;-88
2023/05/20 11:12:56;;;;;;;4.50;2.60;;;;;;;28.30;29.75;101975.22;5027953;28;20025;-89
2023/05/20 11:15:23;;;;;;;4.43;2.45;;;;;;;28.28;26.82;101970.97;5031267;28;20040;-89
2023/05/20 11:17:59;;;;;;;6.65;2.75;;;;;;;28.38;27.66;101961.78;5009778;28;20554;-89
2023/05/20 11:20:25;;;;;;;4.28;2.50;;;;;;;28.28;28.98;101970.97;5027126;28;20034;-89